createdAt,value
2019-05-18T00:02:04.531Z,8.00
2019-05-18T00:04:33.637Z,8.00
2019-05-18T00:07:02.706Z,8.00
2019-05-18T00:09:31.634Z,8.00
2019-05-18T00:12:00.873Z,7.90
2019-05-18T00:14:29.867Z,7.90
2019-05-18T00:16:59.018Z,7.90
2019-05-18T00:19:27.878Z,7.80
2019-05-18T00:21:56.716Z,7.80
2019-05-18T00:24:25.822Z,7.80
2019-05-18T00:26:55.082Z,7.70
2019-05-18T00:29:24.174Z,7.70
2019-05-18T00:31:53.101Z,7.60
2019-05-18T00:34:22.109Z,7.60
2019-05-18T00:36:51.464Z,7.50
2019-05-18T00:39:20.450Z,7.50
2019-05-18T00:41:49.581Z,7.50
2019-05-18T00:44:18.418Z,7.40
2019-05-18T00:46:47.276Z,7.40
2019-05-18T00:49:16.127Z,7.40
2019-05-18T00:51:45.512Z,7.30
2019-05-18T00:54:14.517Z,7.30
2019-05-18T00:56:43.507Z,7.20
2019-05-18T00:59:16.110Z,7.20
2019-05-18T01:01:43.066Z,7.20
2019-05-18T01:04:11.933Z,7.10
2019-05-18T01:06:41.115Z,7.10
2019-05-18T01:09:10.347Z,7.00
2019-05-18T01:11:39.277Z,6.90
2019-05-18T01:14:08.293Z,6.90
2019-05-18T01:16:37.603Z,6.90
2019-05-18T01:19:06.659Z,6.90
2019-05-18T01:21:55.131Z,6.80
2019-05-18T01:24:24.633Z,6.80
2019-05-18T01:26:53.755Z,6.80
2019-05-18T01:29:23.181Z,6.90
2019-05-18T01:31:52.099Z,6.90
2019-05-18T01:34:21.599Z,7.00
2019-05-18T01:36:50.570Z,7.00
2019-05-18T01:39:19.567Z,7.00
2019-05-18T01:41:48.402Z,7.10
2019-05-18T01:44:17.331Z,7.10
2019-05-18T01:46:46.314Z,7.10
2019-05-18T01:49:15.399Z,7.20
2019-05-18T01:51:44.237Z,7.10
2019-05-18T01:54:13.245Z,7.20
2019-05-18T01:56:42.094Z,7.10
2019-05-18T01:59:11.329Z,7.10
2019-05-18T02:01:40.329Z,7.00
2019-05-18T02:04:09.234Z,7.00
2019-05-18T02:06:38.592Z,7.00
2019-05-18T02:09:09.187Z,6.90
2019-05-18T02:11:38.129Z,6.90
2019-05-18T02:14:07.123Z,6.90
2019-05-18T02:16:36.125Z,6.90
2019-05-18T02:19:05.109Z,6.90
2019-05-18T02:21:34.121Z,6.90
2019-05-18T02:24:03.146Z,6.90
2019-05-18T02:26:32.356Z,7.00
2019-05-18T02:29:01.654Z,7.00
2019-05-18T02:31:30.582Z,6.90
2019-05-18T02:33:59.642Z,6.90
2019-05-18T02:36:28.479Z,6.90
2019-05-18T02:38:57.390Z,6.90
2019-05-18T02:41:26.554Z,6.80
2019-05-18T02:43:55.481Z,6.80
2019-05-18T02:46:24.715Z,6.70
2019-05-18T02:48:53.695Z,6.70
2019-05-18T02:51:22.683Z,6.60
2019-05-18T02:53:52.154Z,6.60
2019-05-18T02:56:21.172Z,6.60
2019-05-18T02:58:50.370Z,6.60
2019-05-18T03:01:19.354Z,6.60
2019-05-18T03:03:48.623Z,6.60
2019-05-18T03:06:17.699Z,6.60
2019-05-18T03:08:46.702Z,6.50
2019-05-18T03:11:15.704Z,6.50
2019-05-18T03:13:44.724Z,6.40
2019-05-18T03:16:13.720Z,6.40
2019-05-18T03:18:42.724Z,6.40
2019-05-18T03:21:11.739Z,6.40
2019-05-18T03:23:40.882Z,6.40
2019-05-18T03:26:09.907Z,6.40
2019-05-18T03:28:38.728Z,6.40
2019-05-18T03:31:07.965Z,6.40
2019-05-18T03:33:36.816Z,6.40
2019-05-18T03:36:05.815Z,6.30
2019-05-18T03:38:34.964Z,6.30
2019-05-18T03:41:04.068Z,6.30
2019-05-18T03:43:33.042Z,6.30
2019-05-18T03:46:01.916Z,6.40
2019-05-18T03:48:30.879Z,6.40
2019-05-18T03:50:59.729Z,6.40
2019-05-18T03:53:28.564Z,6.40
2019-05-18T03:55:57.749Z,6.50
2019-05-18T03:58:26.594Z,6.50
2019-05-18T04:00:55.513Z,6.60
2019-05-18T04:03:24.478Z,6.60
2019-05-18T04:05:53.686Z,6.70
2019-05-18T04:08:22.605Z,6.70
2019-05-18T04:10:51.630Z,6.80
2019-05-18T04:13:20.468Z,6.80
2019-05-18T04:15:49.376Z,6.90
2019-05-18T04:18:18.611Z,6.90
2019-05-18T04:20:47.450Z,7.00
2019-05-18T04:23:16.634Z,7.10
2019-05-18T04:25:45.539Z,7.20
2019-05-18T04:28:14.484Z,7.30
2019-05-18T04:30:43.393Z,7.40
2019-05-18T04:33:12.543Z,7.50
2019-05-18T04:35:41.398Z,7.60
2019-05-18T04:38:10.340Z,7.80
2019-05-18T04:40:39.181Z,7.90
2019-05-18T04:43:08.294Z,8.00
2019-05-18T04:45:37.496Z,8.10
2019-05-18T04:48:06.408Z,8.30
2019-05-18T04:50:54.609Z,8.40
2019-05-18T04:53:23.463Z,8.60
2019-05-18T04:55:52.678Z,8.80
2019-05-18T04:58:21.844Z,8.90
2019-05-18T05:00:51.139Z,9.10
2019-05-18T05:03:20.146Z,9.20
2019-05-18T05:05:49.058Z,9.40
2019-05-18T05:08:17.899Z,9.50
2019-05-18T05:10:46.734Z,9.80
2019-05-18T05:13:15.691Z,10.00
2019-05-18T05:15:44.605Z,10.30
2019-05-18T05:18:13.698Z,10.50
2019-05-18T05:20:42.551Z,10.70
2019-05-18T05:23:11.395Z,10.90
2019-05-18T05:25:40.258Z,11.20
2019-05-18T05:28:09.423Z,11.60
2019-05-18T05:30:38.336Z,12.00
2019-05-18T05:33:07.518Z,12.30
2019-05-18T05:35:37.789Z,12.60
2019-05-18T05:38:06.964Z,13.00
2019-05-18T05:40:35.880Z,13.30
2019-05-18T05:43:04.890Z,13.60
2019-05-18T05:45:33.802Z,13.90
2019-05-18T05:48:02.766Z,14.00
2019-05-18T05:50:35.837Z,14.30
2019-05-18T05:53:02.575Z,14.60
2019-05-18T05:55:31.727Z,14.90
2019-05-18T05:58:01.055Z,14.90
2019-05-18T06:00:29.970Z,15.20
2019-05-18T06:02:58.899Z,15.60
2019-05-18T06:05:27.816Z,15.60
2019-05-18T06:07:56.795Z,16.00
2019-05-18T06:10:25.719Z,16.40
2019-05-18T06:12:54.572Z,16.70
2019-05-18T06:15:23.552Z,16.80
2019-05-18T06:17:52.406Z,17.00
2019-05-18T06:20:21.394Z,16.90
2019-05-18T06:22:50.630Z,17.10
2019-05-18T06:25:19.634Z,17.30
2019-05-18T06:27:48.709Z,17.60
2019-05-18T06:30:17.827Z,17.40
2019-05-18T06:32:46.670Z,17.60
2019-05-18T06:35:15.694Z,17.30
2019-05-18T06:37:44.912Z,17.30
2019-05-18T06:40:14.942Z,18.00
2019-05-18T06:42:44.103Z,18.70
2019-05-18T06:45:13.602Z,19.50
2019-05-18T06:47:42.446Z,19.50
2019-05-18T06:50:13.240Z,19.90
2019-05-18T06:52:42.680Z,20.50
2019-05-18T06:55:14.151Z,20.90
2019-05-18T06:57:44.435Z,21.10
2019-05-18T07:00:35.258Z,21.60
2019-05-18T07:03:07.098Z,21.10
2019-05-18T07:05:36.027Z,21.80
2019-05-18T07:08:05.032Z,22.10
2019-05-18T07:10:33.956Z,21.90
2019-05-18T07:13:03.194Z,21.30
2019-05-18T07:15:32.403Z,22.10
2019-05-18T07:18:01.489Z,22.40
2019-05-18T07:20:30.727Z,22.50
2019-05-18T07:22:59.593Z,22.50
2019-05-18T07:25:28.787Z,22.90
2019-05-18T07:27:57.653Z,21.50
2019-05-18T07:30:46.031Z,22.00
2019-05-18T07:33:15.347Z,22.90
2019-05-18T07:35:44.281Z,22.30
2019-05-18T07:38:13.236Z,22.80
2019-05-18T07:40:42.088Z,23.40
2019-05-18T07:43:11.086Z,22.90
2019-05-18T07:45:40.057Z,23.20
2019-05-18T07:48:09.030Z,22.70
2019-05-18T07:50:38.268Z,23.30
2019-05-18T07:53:07.187Z,24.50
2019-05-18T07:55:36.398Z,25.20
2019-05-18T07:58:05.559Z,25.70
2019-05-18T08:00:34.730Z,26.10
2019-05-18T08:03:03.771Z,25.10
2019-05-18T08:05:32.759Z,23.80
2019-05-18T08:08:01.646Z,23.40
2019-05-18T08:10:38.036Z,23.20
2019-05-18T08:13:07.935Z,23.30
2019-05-18T08:15:37.410Z,24.30
2019-05-18T08:18:06.414Z,24.30
2019-05-18T08:20:36.093Z,24.20
2019-05-18T08:23:05.086Z,24.20
2019-05-18T08:25:34.102Z,25.00
2019-05-18T08:28:03.140Z,24.80
2019-05-18T08:30:32.138Z,24.00
2019-05-18T08:33:01.224Z,24.70
2019-05-18T08:35:30.146Z,25.50
2019-05-18T08:37:58.990Z,26.30
2019-05-18T08:40:27.984Z,26.10
2019-05-18T08:42:57.439Z,25.50
2019-05-18T08:45:26.701Z,25.80
2019-05-18T08:47:55.575Z,24.70
2019-05-18T08:50:24.542Z,24.90
2019-05-18T08:52:53.681Z,24.10
2019-05-18T08:55:22.914Z,23.20
2019-05-18T08:57:52.189Z,23.50
2019-05-18T09:00:21.536Z,24.10
2019-05-18T09:02:50.519Z,25.00
2019-05-18T09:05:19.519Z,25.60
2019-05-18T09:07:48.758Z,26.20
2019-05-18T09:10:19.318Z,26.10
2019-05-18T09:12:48.493Z,26.30
2019-05-18T09:15:18.245Z,25.50
2019-05-18T09:17:47.179Z,25.50
2019-05-18T09:20:16.226Z,25.30
2019-05-18T09:22:45.206Z,26.10
2019-05-18T09:25:14.415Z,26.30
2019-05-18T09:27:43.713Z,26.80
2019-05-18T09:30:13.347Z,27.20
2019-05-18T09:32:42.386Z,26.90
2019-05-18T09:35:11.918Z,27.00
2019-05-18T09:37:40.834Z,27.10
2019-05-18T09:40:10.611Z,26.70
2019-05-18T09:42:39.916Z,26.60
2019-05-18T09:45:09.929Z,26.40
2019-05-18T09:47:38.942Z,26.60
2019-05-18T09:50:08.559Z,25.40
2019-05-18T09:52:46.194Z,26.20
2019-05-18T09:55:08.411Z,26.30
2019-05-18T09:57:37.409Z,25.60
2019-05-18T10:00:07.179Z,24.90
2019-05-18T10:02:36.650Z,25.60
2019-05-18T10:05:06.062Z,26.30
2019-05-18T10:07:35.009Z,26.70
2019-05-18T10:10:04.419Z,28.00
2019-05-18T10:12:33.394Z,29.10
2019-05-18T10:15:02.663Z,29.80
2019-05-18T10:17:32.394Z,29.40
2019-05-18T10:20:01.342Z,29.90
2019-05-18T10:22:30.260Z,29.00
2019-05-18T10:24:59.098Z,29.50
2019-05-18T10:27:27.998Z,29.30
2019-05-18T10:29:57.126Z,29.00
2019-05-18T10:32:26.515Z,29.40
2019-05-18T10:35:14.743Z,27.80
2019-05-18T10:37:43.591Z,28.00
2019-05-18T10:40:12.985Z,28.80
2019-05-18T10:42:41.906Z,29.10
2019-05-18T10:45:12.795Z,29.80
2019-05-18T10:47:42.284Z,29.90
2019-05-18T10:50:11.474Z,30.50
2019-05-18T10:52:40.680Z,30.70
2019-05-18T10:55:10.307Z,30.70
2019-05-18T10:57:39.486Z,30.80
2019-05-18T11:00:10.880Z,31.60
2019-05-18T11:02:59.056Z,29.70
2019-05-18T11:05:27.971Z,27.90
2019-05-18T11:07:56.861Z,26.40
2019-05-18T11:10:25.877Z,25.30
2019-05-18T11:12:54.805Z,26.10
2019-05-18T11:15:24.450Z,27.50
2019-05-18T11:17:54.083Z,28.70
2019-05-18T11:20:23.183Z,28.70
2019-05-18T11:22:52.578Z,29.00
2019-05-18T11:25:21.680Z,29.40
2019-05-18T11:27:50.594Z,29.70
2019-05-18T11:30:20.757Z,29.30
2019-05-18T11:32:49.750Z,29.60
2019-05-18T11:35:19.182Z,29.80
2019-05-18T11:37:48.182Z,30.30
2019-05-18T11:40:18.690Z,29.40
2019-05-18T11:42:47.534Z,29.60
2019-05-18T11:45:17.706Z,29.10
2019-05-18T11:47:46.775Z,28.30
2019-05-18T11:50:16.589Z,27.90
2019-05-18T11:52:45.864Z,27.80
2019-05-18T11:55:14.968Z,26.80
2019-05-18T11:57:44.207Z,26.40
2019-05-18T12:00:15.671Z,26.50
2019-05-18T12:02:44.674Z,26.30
2019-05-18T12:05:15.058Z,27.10
2019-05-18T12:07:44.068Z,27.30
2019-05-18T12:10:14.152Z,27.50
2019-05-18T12:12:43.178Z,27.50
2019-05-18T12:15:12.950Z,27.10
2019-05-18T12:17:41.958Z,27.80
2019-05-18T12:20:12.653Z,27.50
2019-05-18T12:22:41.586Z,26.70
2019-05-18T12:25:10.666Z,27.30
2019-05-18T12:27:39.861Z,26.60
2019-05-18T12:30:10.072Z,26.40
2019-05-18T12:32:39.013Z,26.10
2019-05-18T12:35:09.345Z,25.80
2019-05-18T12:37:38.387Z,26.60
2019-05-18T12:40:08.675Z,27.20
2019-05-18T12:42:38.022Z,26.50
2019-05-18T12:45:26.489Z,26.10
2019-05-18T12:48:15.105Z,25.80
2019-05-18T12:50:44.252Z,26.80
2019-05-18T12:53:13.187Z,27.90
2019-05-18T12:55:42.122Z,28.80
2019-05-18T12:58:10.983Z,29.00
2019-05-18T13:00:39.974Z,28.90
2019-05-18T13:03:09.316Z,28.20
2019-05-18T13:05:38.179Z,27.90
2019-05-18T13:08:07.328Z,27.40
2019-05-18T13:10:36.347Z,26.90
2019-05-18T13:13:05.416Z,27.40
2019-05-18T13:15:34.335Z,26.70
2019-05-18T13:18:03.290Z,27.30
2019-05-18T13:20:32.224Z,27.50
2019-05-18T13:23:01.247Z,27.00
2019-05-18T13:25:30.180Z,27.30
2019-05-18T13:27:59.018Z,26.70
2019-05-18T13:30:28.371Z,26.30
2019-05-18T13:32:57.365Z,25.60
2019-05-18T13:35:26.932Z,26.10
2019-05-18T13:37:55.900Z,26.70
2019-05-18T13:40:25.027Z,26.80
2019-05-18T13:42:53.924Z,26.20
2019-05-18T13:45:23.043Z,26.30
2019-05-18T13:47:52.071Z,26.50
2019-05-18T13:50:21.120Z,26.50
2019-05-18T13:52:50.078Z,26.60
2019-05-18T13:55:19.378Z,26.40
2019-05-18T13:57:48.321Z,26.60
2019-05-18T14:00:17.685Z,26.90
2019-05-18T14:02:46.682Z,27.00
2019-05-18T14:05:16.438Z,27.00
2019-05-18T14:07:45.348Z,26.60
2019-05-18T14:10:14.552Z,26.50
2019-05-18T14:12:43.903Z,26.40
2019-05-18T14:15:13.407Z,25.80
2019-05-18T14:17:42.634Z,25.80
2019-05-18T14:20:12.282Z,25.70
2019-05-18T14:22:41.218Z,25.50
2019-05-18T14:25:19.155Z,25.30
2019-05-18T14:27:42.201Z,25.00
2019-05-18T14:30:13.093Z,24.60
2019-05-18T14:32:42.054Z,24.80
2019-05-18T14:35:11.154Z,25.00
2019-05-18T14:37:40.323Z,25.30
2019-05-18T14:40:09.331Z,25.40
2019-05-18T14:42:38.606Z,25.50
2019-05-18T14:45:08.139Z,25.40
2019-05-18T14:47:37.317Z,25.40
2019-05-18T14:50:06.437Z,25.50
2019-05-18T14:52:35.698Z,25.40
2019-05-18T14:55:04.850Z,25.20
2019-05-18T14:57:34.133Z,25.20
2019-05-18T15:00:03.051Z,25.20
2019-05-18T15:02:32.050Z,25.10
2019-05-18T15:05:02.158Z,25.00
2019-05-18T15:07:31.324Z,24.80
2019-05-18T15:10:00.240Z,24.50
2019-05-18T15:12:29.101Z,24.30
2019-05-18T15:14:58.561Z,24.30
2019-05-18T15:17:28.174Z,24.10
2019-05-18T15:19:57.030Z,24.10
2019-05-18T15:22:26.200Z,24.40
2019-05-18T15:24:55.055Z,24.20
2019-05-18T15:27:24.252Z,24.10
2019-05-18T15:29:53.408Z,24.10
2019-05-18T15:32:22.357Z,24.10
2019-05-18T15:34:51.258Z,24.40
2019-05-18T15:37:20.514Z,24.50
2019-05-18T15:39:49.503Z,24.30
2019-05-18T15:42:18.599Z,24.20
2019-05-18T15:44:47.756Z,23.70
2019-05-18T15:47:16.695Z,23.30
2019-05-18T15:50:01.011Z,22.80
2019-05-18T15:52:30.175Z,22.50
2019-05-18T15:54:59.026Z,22.30
2019-05-18T15:57:27.905Z,22.40
2019-05-18T15:59:56.876Z,22.50
2019-05-18T16:02:25.901Z,22.50
2019-05-18T16:04:54.726Z,22.50
2019-05-18T16:07:24.095Z,22.40
2019-05-18T16:09:53.091Z,22.40
2019-05-18T16:12:22.313Z,22.40
2019-05-18T16:14:51.147Z,22.40
2019-05-18T16:17:20.318Z,22.40
2019-05-18T16:19:55.148Z,22.30
2019-05-18T16:22:23.991Z,22.20
2019-05-18T16:24:52.979Z,22.30
2019-05-18T16:27:22.015Z,22.30
2019-05-18T16:29:56.983Z,22.30
2019-05-18T16:32:26.078Z,22.20
2019-05-18T16:34:55.264Z,22.00
2019-05-18T16:37:24.129Z,21.70
2019-05-18T16:39:53.147Z,21.60
2019-05-18T16:42:21.988Z,21.40
2019-05-18T16:44:51.271Z,21.30
2019-05-18T16:47:20.180Z,21.20
2019-05-18T16:49:58.178Z,21.20
2019-05-18T16:52:27.171Z,21.10
2019-05-18T16:54:56.106Z,21.10
2019-05-18T16:57:25.010Z,21.10
2019-05-18T16:59:53.945Z,21.00
2019-05-18T17:02:31.859Z,21.00
2019-05-18T17:04:53.826Z,20.90
2019-05-18T17:07:22.669Z,20.90
2019-05-18T17:09:51.681Z,20.80
2019-05-18T17:12:20.625Z,20.80
2019-05-18T17:14:49.512Z,20.80
2019-05-18T17:17:19.071Z,20.70
2019-05-18T17:19:48.331Z,20.70
2019-05-18T17:22:19.387Z,20.60
2019-05-18T17:24:48.239Z,20.70
2019-05-18T17:27:17.162Z,20.60
2019-05-18T17:29:46.022Z,20.60
2019-05-18T17:32:14.947Z,20.60
2019-05-18T17:34:43.862Z,20.60
2019-05-18T17:37:12.697Z,20.50
2019-05-18T17:39:41.692Z,20.50
2019-05-18T17:42:10.930Z,20.40
2019-05-18T17:44:39.868Z,20.30
2019-05-18T17:47:09.349Z,20.30
2019-05-18T17:49:50.366Z,20.30
2019-05-18T17:52:19.585Z,20.20
2019-05-18T17:54:48.691Z,20.10
2019-05-18T17:57:17.698Z,20.10
2019-05-18T17:59:49.457Z,20.00
2019-05-18T18:02:17.194Z,19.90
2019-05-18T18:04:46.062Z,19.80
2019-05-18T18:07:14.995Z,19.70
2019-05-18T18:09:43.944Z,19.60
2019-05-18T18:12:12.855Z,19.50
2019-05-18T18:14:41.880Z,19.40
2019-05-18T18:17:10.795Z,19.30
2019-05-18T18:19:39.989Z,19.20
2019-05-18T18:22:09.057Z,19.10
2019-05-18T18:24:38.961Z,19.00
2019-05-18T18:27:23.809Z,18.90
2019-05-18T18:29:39.148Z,18.90
2019-05-18T18:32:08.169Z,18.80
2019-05-18T18:34:37.425Z,18.70
2019-05-18T18:37:06.488Z,18.50
2019-05-18T18:39:35.426Z,18.50
2019-05-18T18:42:04.498Z,18.40
2019-05-18T18:44:33.347Z,18.30
2019-05-18T18:47:02.274Z,18.20
2019-05-18T18:49:31.619Z,18.10
2019-05-18T18:52:00.578Z,18.00
2019-05-18T18:54:29.499Z,17.90
2019-05-18T18:56:58.413Z,17.70
2019-05-18T18:59:27.350Z,17.60
2019-05-18T19:01:56.351Z,17.50
2019-05-18T19:04:25.207Z,17.40
2019-05-18T19:06:54.135Z,17.30
2019-05-18T19:09:23.386Z,17.20
2019-05-18T19:11:52.311Z,17.00
2019-05-18T19:14:21.525Z,17.00
2019-05-18T19:16:50.453Z,16.90
2019-05-18T19:19:19.294Z,16.80
2019-05-18T19:21:48.231Z,16.70
2019-05-18T19:24:17.214Z,16.60
2019-05-18T19:26:46.152Z,16.50
2019-05-18T19:29:15.267Z,16.40
2019-05-18T19:31:44.190Z,16.40
2019-05-18T19:34:13.137Z,16.30
2019-05-18T19:36:42.004Z,16.20
2019-05-18T19:39:10.939Z,16.20
2019-05-18T19:41:39.826Z,16.10
2019-05-18T19:44:09.133Z,16.00
2019-05-18T19:46:38.291Z,16.00
2019-05-18T19:49:07.152Z,15.90
2019-05-18T19:51:36.251Z,15.80
2019-05-18T19:54:05.114Z,15.80
2019-05-18T19:56:39.568Z,15.70
2019-05-18T19:59:05.082Z,15.60
2019-05-18T20:01:34.017Z,15.60
2019-05-18T20:04:03.004Z,15.50
2019-05-18T20:06:32.037Z,15.40
2019-05-18T20:12:43.055Z,15.30
2019-05-18T20:15:12.339Z,15.20
2019-05-18T20:17:41.552Z,15.10
2019-05-18T20:20:11.581Z,15.10
2019-05-18T20:22:40.888Z,15.00
2019-05-18T20:25:10.609Z,14.90
2019-05-18T20:27:39.943Z,14.80
2019-05-18T20:30:09.761Z,14.70
2019-05-18T20:36:07.642Z,14.60
2019-05-18T20:38:36.832Z,14.50
2019-05-18T20:41:05.870Z,14.40
2019-05-18T20:43:34.682Z,14.30
2019-05-18T20:46:03.767Z,14.20
2019-05-18T20:48:41.608Z,14.20
2019-05-18T20:51:10.687Z,14.10
2019-05-18T20:53:41.066Z,14.00
2019-05-18T20:56:10.161Z,14.00
2019-05-18T20:58:40.715Z,13.90
2019-05-18T21:01:09.605Z,13.90
2019-05-18T21:03:38.506Z,13.80
2019-05-18T21:06:07.408Z,13.80
2019-05-18T21:08:36.235Z,13.70
2019-05-18T21:11:05.435Z,13.70
2019-05-18T21:13:34.338Z,13.60
2019-05-18T21:16:03.158Z,13.50
2019-05-18T21:18:31.994Z,13.40
2019-05-18T21:21:00.885Z,13.30
2019-05-18T21:23:29.718Z,13.20
2019-05-18T21:25:58.538Z,13.10
2019-05-18T21:28:27.553Z,13.00
2019-05-18T21:30:56.362Z,12.90
2019-05-18T21:33:25.185Z,12.80
2019-05-18T21:35:54.233Z,12.70
2019-05-18T21:38:23.063Z,12.70
2019-05-18T21:40:51.882Z,12.60
2019-05-18T21:43:20.849Z,12.60
2019-05-18T21:45:49.665Z,12.50
2019-05-18T21:48:18.497Z,12.50
2019-05-18T21:50:47.408Z,12.40
2019-05-18T21:53:16.461Z,12.30
2019-05-18T21:55:45.515Z,12.20
2019-05-18T21:58:14.485Z,12.10
2019-05-18T22:00:45.541Z,12.00
2019-05-18T22:03:14.370Z,11.90
2019-05-18T22:05:43.521Z,11.80
2019-05-18T22:08:12.417Z,11.80
2019-05-18T22:10:41.225Z,11.80
2019-05-18T22:13:10.134Z,11.70
2019-05-18T22:15:38.953Z,11.60
2019-05-18T22:18:07.802Z,11.60
2019-05-18T22:20:43.103Z,11.50
2019-05-18T22:23:08.209Z,11.50
2019-05-18T22:25:37.341Z,11.40
2019-05-18T22:28:06.385Z,11.30
2019-05-18T22:30:35.423Z,11.30
2019-05-18T22:33:04.329Z,11.20
2019-05-18T22:35:33.479Z,11.20
2019-05-18T22:38:02.310Z,11.20
2019-05-18T22:40:31.226Z,11.10
2019-05-18T22:43:00.100Z,11.10
2019-05-18T22:45:28.918Z,11.10
2019-05-18T22:47:58.239Z,11.10
2019-05-18T22:50:27.134Z,11.10
2019-05-18T22:52:56.040Z,11.10
2019-05-18T22:55:24.862Z,11.10
2019-05-18T22:57:53.770Z,11.00
2019-05-18T23:00:22.653Z,11.00
2019-05-18T23:02:51.738Z,11.00
2019-05-18T23:05:20.558Z,10.90
2019-05-18T23:07:49.457Z,10.90
2019-05-18T23:10:18.418Z,10.80
2019-05-18T23:12:47.228Z,10.70
2019-05-18T23:15:16.246Z,10.70
2019-05-18T23:17:45.189Z,10.60
2019-05-18T23:20:14.167Z,10.60
2019-05-18T23:22:43.071Z,10.60
2019-05-18T23:25:12.531Z,10.60
2019-05-18T23:27:41.435Z,10.50
2019-05-18T23:30:29.463Z,10.50
2019-05-18T23:32:58.354Z,10.50
2019-05-18T23:35:27.170Z,10.50
2019-05-18T23:37:55.991Z,10.50
2019-05-18T23:40:24.882Z,10.40
2019-05-18T23:42:53.701Z,10.40
2019-05-18T23:45:22.501Z,10.40
2019-05-18T23:47:51.448Z,10.40
2019-05-18T23:50:20.397Z,10.40
2019-05-18T23:53:08.431Z,10.40
2019-05-18T23:55:37.386Z,10.30
2019-05-18T23:58:06.523Z,10.30
